Terminal Aerodrome Forecast
Issued by NWS

Home | Current Version | Previous Version | Text Only | Print | Product List | Glossary On
Versions: 1 2 3 4 5 6 7 8 9 10 11 12 13 14 15 16 17 18
145
FTUS43 KDLH 161455 AAD
TAFHIB
TAF AMD
KHIB 161455Z 1615/1712 VRB03KT 2SM BR OVC002
      TEMPO 1615/1616 1/4SM FZFG
     FM161600 VRB03KT P6SM SCT200
     FM170400 00000KT 5SM BR SCT200=

USA.gov is the U.S. government's official web portal to all federal, state and local government web resources and services.